Time;durP1;ratioP1;P1;durP2;ratioP2;P2;SDS_P1;SDS_P2;PMS_P1;PMS_P2;Temp;Humidity;BMP_temperature;BMP_pressure;BME280_temperature;BME280_humidity;BME280_pressure;Samples;Min_cycle;Max_cycle;Signal;HPM_P1;HPM_P2
2023/10/14 00:01:55;;;;;;;5.93;3.13;;;;;;;25.67;28.64;96776.94;5031782;28;20422;-72
2023/10/14 00:04:25;;;;;;;8.43;3.67;;;;;;;25.64;29.03;96761.41;5033463;28;20516;-71
2023/10/14 00:06:51;;;;;;;11.13;3.00;;;;;;;25.66;29.04;96764.59;5027272;28;21040;-71
2023/10/14 00:09:16;;;;;;;5.03;3.40;;;;;;;25.65;29.22;96762.97;5028353;28;20453;-71
2023/10/14 00:11:51;;;;;;;5.37;3.40;;;;;;;25.60;29.62;96773.69;5027812;28;20203;-70
2023/10/14 00:14:18;;;;;;;7.53;3.70;;;;;;;25.50;30.64;96765.59;5033163;28;20751;-69
2023/10/14 00:16:51;;;;;;;4.20;3.57;;;;;;;25.57;30.60;96766.16;5028650;28;20422;-70
2023/10/14 00:19:21;;;;;;;9.40;3.70;;;;;;;25.59;31.14;96764.84;5029588;28;20513;-71
2023/10/14 00:21:51;;;;;;;12.20;4.17;;;;;;;25.57;32.64;96767.00;5027754;28;20431;-71
2023/10/14 00:24:26;;;;;;;7.40;4.13;;;;;;;25.58;32.74;96773.94;5035541;28;20470;-71
2023/10/14 00:26:55;;;;;;;12.63;4.47;;;;;;;25.53;33.31;96770.44;5034518;28;20426;-70
2023/10/14 00:29:21;;;;;;;6.63;4.30;;;;;;;25.57;33.59;96769.69;5027685;28;20854;-70
2023/10/14 00:31:51;;;;;;;9.83;4.07;;;;;;;25.52;34.78;96769.63;5025200;28;20519;-71
2023/10/14 00:34:18;;;;;;;7.90;4.43;;;;;;;25.51;35.46;96768.00;5033538;28;20675;-70
2023/10/14 00:36:44;;;;;;;15.80;4.30;;;;;;;25.54;35.94;96750.59;5028798;28;20431;-71
2023/10/14 00:39:12;;;;;;;9.70;4.53;;;;;;;25.57;35.95;96758.13;5034854;28;20435;-70
2023/10/14 00:41:42;;;;;;;9.03;4.50;;;;;;;25.44;35.70;96751.34;5024140;28;20199;-69
2023/10/14 00:44:09;;;;;;;5.70;4.93;;;;;;;25.36;35.68;96727.66;5029704;28;20464;-70
2023/10/14 00:46:35;;;;;;;10.00;4.43;;;;;;;25.39;35.29;96746.72;5028518;28;20450;-70
2023/10/14 00:49:04;;;;;;;8.23;4.63;;;;;;;25.32;35.46;96743.47;5035434;28;20430;-71
2023/10/14 00:51:33;;;;;;;10.23;4.00;;;;;;;25.39;35.55;96748.59;5027787;28;20195;-70
2023/10/14 00:54:03;;;;;;;8.10;5.10;;;;;;;25.32;36.71;96748.81;5036658;28;20879;-71
2023/10/14 00:56:31;;;;;;;6.50;4.30;;;;;;;25.15;38.29;96743.63;5039289;28;20453;-72
2023/10/14 00:59:03;;;;;;;8.10;5.20;;;;;;;25.06;38.68;96756.69;5029787;28;21016;-71
2023/10/14 01:01:32;;;;;;;10.63;4.97;;;;;;;24.98;40.42;96752.63;5036764;28;20426;-70
2023/10/14 01:04:18;;;;;;;9.67;5.27;;;;;;;24.97;41.38;96750.19;5024681;28;20512;-72
2023/10/14 01:07:04;;;;;;;11.10;4.90;;;;;;;24.80;42.44;96747.66;5029406;28;20445;-71
2023/10/14 01:09:54;;;;;;;10.93;5.30;;;;;;;24.76;42.52;96735.81;5026450;28;20434;-71
2023/10/14 01:12:26;;;;;;;6.50;5.27;;;;;;;24.80;42.79;96742.28;5041216;28;20529;-71
2023/10/14 01:14:52;;;;;;;7.30;5.27;;;;;;;24.72;43.27;96746.25;5039811;28;20445;-71
2023/10/14 01:19:55;;;;;;;6.23;5.60;;;;;;;24.49;44.06;96731.28;5038856;28;20787;-70
2023/10/14 01:22:20;;;;;;;7.70;5.50;;;;;;;24.53;43.97;96741.22;5030790;28;20445;-72
2023/10/14 01:24:46;;;;;;;11.10;5.30;;;;;;;24.45;44.31;96747.03;5025712;28;20992;-70
2023/10/14 01:27:13;;;;;;;11.40;5.90;;;;;;;24.22;45.20;96729.41;5038353;28;20191;-70
2023/10/14 01:29:39;;;;;;;7.93;5.13;;;;;;;24.19;45.52;96743.31;5030683;28;20733;-71
2023/10/14 01:32:42;;;;;;;8.53;5.40;;;;;;;23.99;46.14;96744.69;5030686;28;20454;-71
2023/10/14 01:35:24;;;;;;;11.47;6.20;;;;;;;24.07;45.71;96741.53;5023685;28;20215;-68
2023/10/14 01:37:54;;;;;;;7.47;5.60;;;;;;;24.19;45.70;96743.31;5032142;28;20434;-72
2023/10/14 01:42:50;;;;;;;6.43;5.57;;;;;;;24.02;46.14;96736.16;5031269;28;20487;-71
2023/10/14 01:45:20;;;;;;;11.27;5.87;;;;;;;23.91;46.58;96739.75;5035083;28;20461;-71
2023/10/14 01:47:51;;;;;;;14.27;5.73;;;;;;;23.86;46.80;96753.06;5033247;28;20430;-71
2023/10/14 01:50:17;;;;;;;9.63;6.33;;;;;;;23.84;46.54;96737.25;5030665;28;20423;-70
2023/10/14 01:52:42;;;;;;;11.70;5.27;;;;;;;23.81;46.84;96745.78;5030643;28;20433;-70
2023/10/14 01:55:09;;;;;;;11.53;5.70;;;;;;;23.80;47.06;96746.03;5030751;28;20235;-72
2023/10/14 01:57:36;;;;;;;11.87;5.60;;;;;;;23.79;46.91;96742.53;5030384;28;20194;-71
2023/10/14 02:00:13;;;;;;;8.63;5.50;;;;;;;23.83;46.88;96754.38;5031378;28;20434;-70
2023/10/14 02:02:47;;;;;;;10.00;6.33;;;;;;;23.63;47.67;96741.53;5033435;28;20438;-70
2023/10/14 02:05:14;;;;;;;8.27;5.63;;;;;;;23.52;47.83;96740.59;5034747;28;20481;-70
2023/10/14 02:07:40;;;;;;;8.23;5.67;;;;;;;23.60;47.28;96731.31;5030445;28;20431;-71
2023/10/14 02:10:12;;;;;;;12.50;5.57;;;;;;;23.56;47.68;96727.56;5029308;28;20449;-71
2023/10/14 02:12:37;;;;;;;6.30;5.70;;;;;;;23.42;48.15;96730.59;5033801;28;20196;-70
2023/10/14 02:15:08;;;;;;;7.43;5.50;;;;;;;23.56;47.70;96720.31;5019273;28;20459;-72
2023/10/14 02:17:33;;;;;;;11.20;6.10;;;;;;;23.40;48.24;96716.66;5044505;28;20187;-72
2023/10/14 02:20:08;;;;;;;11.63;5.60;;;;;;;23.51;47.73;96717.56;5034306;28;20442;-71
2023/10/14 02:22:38;;;;;;;7.07;5.70;;;;;;;23.57;47.75;96721.13;5028746;28;20262;-71
2023/10/14 02:25:04;;;;;;;12.63;6.70;;;;;;;23.61;47.62;96709.72;5028789;28;20478;-70
2023/10/14 02:27:30;;;;;;;8.07;5.47;;;;;;;23.58;47.83;96709.38;5037813;28;20526;-72
2023/10/14 02:29:56;;;;;;;14.73;6.50;;;;;;;23.53;47.70;96709.31;5029281;28;20434;-72
2023/10/14 02:32:21;;;;;;;9.43;5.73;;;;;;;23.58;47.60;96712.03;5027453;28;20449;-71
2023/10/14 02:34:46;;;;;;;13.03;5.63;;;;;;;23.49;48.06;96697.50;5037954;28;20644;-71
2023/10/14 02:37:15;;;;;;;8.53;6.10;;;;;;;23.50;47.83;96699.13;5029128;28;20198;-72
2023/10/14 02:39:43;;;;;;;8.83;5.97;;;;;;;23.49;47.83;96694.81;5028943;28;20219;-71
2023/10/14 02:42:09;;;;;;;10.30;6.27;;;;;;;23.55;47.72;96685.81;5030720;28;20466;-71
2023/10/14 02:44:52;;;;;;;8.40;5.90;;;;;;;23.40;48.03;96673.03;5037381;28;20616;-70
2023/10/14 02:47:19;;;;;;;7.63;5.80;;;;;;;23.44;48.09;96674.19;5029957;28;20613;-74
2023/10/14 02:49:53;;;;;;;7.50;5.80;;;;;;;23.37;48.05;96658.31;5039606;28;20430;-71
2023/10/14 02:52:19;;;;;;;9.93;6.30;;;;;;;23.55;47.79;96667.09;5033520;28;20434;-69
2023/10/14 02:54:55;;;;;;;10.53;5.97;;;;;;;23.53;47.61;96648.63;5032285;28;20434;-71
2023/10/14 02:57:27;;;;;;;6.73;5.77;;;;;;;23.61;47.61;96668.75;5023789;28;20274;-71
2023/10/14 02:59:57;;;;;;;11.43;6.17;;;;;;;23.42;47.90;96674.44;5034180;28;20422;-71
2023/10/14 03:07:29;;;;;;;9.53;6.00;;;;;;;23.59;47.41;96661.00;5020205;28;20425;-71
2023/10/14 03:12:49;;;;;;;11.90;5.93;;;;;;;23.67;47.21;96659.75;5041120;28;20425;-71
2023/10/14 03:15:19;;;;;;;8.00;6.80;;;;;;;23.69;47.02;96654.16;5030500;28;20804;-70
2023/10/14 03:17:56;;;;;;;11.00;6.30;;;;;;;23.57;47.28;96675.66;5041371;28;20198;-72
2023/10/14 03:23:22;;;;;;;7.00;6.30;;;;;;;23.55;47.14;96643.84;5033680;28;20426;-72
2023/10/14 03:25:50;;;;;;;13.43;6.40;;;;;;;23.66;47.12;96649.28;5023685;28;20462;-70
2023/10/14 03:28:21;;;;;;;6.20;5.60;;;;;;;23.72;47.12;96649.09;5026951;28;20422;-72
2023/10/14 03:30:58;;;;;;;11.00;6.17;;;;;;;23.73;46.76;96645.38;5028068;28;21010;-71
2023/10/14 03:33:27;;;;;;;10.30;6.10;;;;;;;23.47;47.51;96666.47;5020729;28;20426;-70
2023/10/14 03:35:57;;;;;;;11.57;6.77;;;;;;;23.52;47.53;96656.91;5026685;28;20584;-70
2023/10/14 03:38:38;;;;;;;13.00;6.57;;;;;;;23.53;47.47;96656.63;5023866;28;20780;-70
2023/10/14 03:41:19;;;;;;;13.03;6.00;;;;;;;23.39;47.82;96655.38;5033420;28;20927;-71
2023/10/14 03:43:59;;;;;;;13.70;6.23;;;;;;;23.60;47.48;96635.06;5031344;28;20434;-70
2023/10/14 03:46:32;;;;;;;9.10;6.10;;;;;;;23.63;47.37;96651.41;5039391;28;20830;-71
2023/10/14 03:49:11;;;;;;;8.20;6.30;;;;;;;23.43;47.77;96657.34;5032191;28;20810;-70
2023/10/14 03:51:40;;;;;;;12.07;6.67;;;;;;;23.41;47.78;96643.41;5033672;28;20425;-71
2023/10/14 03:54:09;;;;;;;11.83;6.47;;;;;;;23.40;47.87;96639.13;5036569;28;20433;-71
2023/10/14 03:56:36;;;;;;;12.67;6.70;;;;;;;23.53;47.50;96632.56;5039494;28;20445;-71
2023/10/14 03:59:02;;;;;;;8.80;5.90;;;;;;;23.55;47.44;96627.00;5036815;28;20437;-70
2023/10/14 04:01:34;;;;;;;9.90;6.43;;;;;;;23.58;47.57;96637.16;5030710;28;20812;-69
2023/10/14 04:04:02;;;;;;;9.67;6.40;;;;;;;23.54;47.88;96636.06;5034979;28;20437;-70
2023/10/14 04:06:28;;;;;;;11.93;5.60;;;;;;;23.47;48.10;96626.34;5027956;28;20454;-70
2023/10/14 04:08:54;;;;;;;11.40;5.87;;;;;;;23.50;48.06;96637.63;5033707;28;20776;-70
2023/10/14 04:11:27;;;;;;;12.20;6.03;;;;;;;23.51;48.04;96633.88;5027719;28;20214;-71
2023/10/14 04:14:04;;;;;;;16.30;6.77;;;;;;;23.46;48.31;96629.28;5027193;28;20442;-71
2023/10/14 04:19:22;;;;;;;11.80;6.43;;;;;;;23.54;48.13;96638.75;5026968;28;20500;-70
2023/10/14 04:21:58;;;;;;;11.40;6.53;;;;;;;23.49;48.37;96650.19;5029012;28;20800;-71
2023/10/14 04:26:51;;;;;;;16.93;6.20;;;;;;;23.47;48.50;96655.78;5031509;28;20442;-69
2023/10/14 04:29:39;;;;;;;12.20;7.03;;;;;;;23.50;48.61;96656.34;5027207;28;20476;-70
2023/10/14 04:32:14;;;;;;;10.07;6.47;;;;;;;23.46;48.51;96670.19;5035479;28;20227;-71
2023/10/14 04:34:44;;;;;;;8.90;6.40;;;;;;;23.41;48.68;96677.34;5034090;28;20432;-71
2023/10/14 04:37:12;;;;;;;8.20;6.53;;;;;;;23.51;48.31;96684.69;5027325;28;20443;-72
2023/10/14 04:39:42;;;;;;;10.20;5.90;;;;;;;23.59;48.27;96692.28;5039239;28;20422;-72
2023/10/14 04:44:54;;;;;;;8.77;5.93;;;;;;;23.55;49.05;96724.06;5036506;28;20461;-72
2023/10/14 04:47:27;;;;;;;12.97;6.00;;;;;;;23.56;49.18;96719.53;5030485;28;20991;-72
2023/10/14 04:49:53;;;;;;;11.40;6.20;;;;;;;23.51;49.71;96722.13;5034169;28;20446;-71
2023/10/14 04:52:19;;;;;;;11.73;5.43;;;;;;;23.47;49.79;96716.47;5030328;28;20897;-71
2023/10/14 04:54:54;;;;;;;10.67;5.97;;;;;;;23.44;49.88;96712.41;5037724;28;20457;-72
2023/10/14 04:57:21;;;;;;;13.27;5.33;;;;;;;23.40;49.93;96719.31;5041500;28;20197;-71
2023/10/14 04:59:52;;;;;;;13.73;5.30;;;;;;;23.30;49.22;96693.25;5039737;28;20800;-71
2023/10/14 05:02:20;;;;;;;12.90;5.03;;;;;;;23.31;49.15;96700.22;5037576;28;20440;-71
2023/10/14 05:04:48;;;;;;;11.90;6.07;;;;;;;23.29;48.49;96688.97;5040500;28;20520;-71
2023/10/14 05:07:15;;;;;;;8.93;5.67;;;;;;;23.29;48.60;96707.66;5037395;28;20434;-71
2023/10/14 05:09:42;;;;;;;10.00;5.97;;;;;;;23.33;47.75;96710.66;5030209;28;20488;-71
2023/10/14 05:12:17;;;;;;;14.20;5.87;;;;;;;23.33;47.42;96715.19;5030888;28;20434;-71
2023/10/14 05:14:42;;;;;;;9.53;5.20;;;;;;;23.22;46.82;96704.38;5038310;28;20835;-70
2023/10/14 05:19:41;;;;;;;12.07;6.00;;;;;;;23.27;46.00;96725.00;5030379;28;20203;-71
2023/10/14 05:22:23;;;;;;;16.00;5.30;;;;;;;23.28;45.78;96719.41;5026894;28;20788;-70
2023/10/14 05:24:52;;;;;;;11.20;5.47;;;;;;;23.25;45.16;96729.78;5031967;28;20466;-71
2023/10/14 05:27:21;;;;;;;11.90;4.50;;;;;;;23.30;45.28;96729.88;5026990;28;20431;-71
2023/10/14 05:29:50;;;;;;;10.40;5.10;;;;;;;23.37;45.08;96737.72;5030214;28;20453;-72
2023/10/14 05:32:18;;;;;;;9.90;4.83;;;;;;;23.39;44.66;96744.44;5031063;28;20484;-71
2023/10/14 05:34:44;;;;;;;7.53;4.73;;;;;;;23.39;44.17;96744.44;5026229;28;20435;-71
2023/10/14 05:37:14;;;;;;;8.23;4.97;;;;;;;23.43;43.97;96745.56;5030022;28;20469;-72
2023/10/14 05:39:42;;;;;;;10.30;4.77;;;;;;;23.41;43.88;96745.00;5031525;28;20430;-72
2023/10/14 05:42:21;;;;;;;6.73;4.40;;;;;;;23.50;43.48;96753.41;5035639;28;20431;-72
2023/10/14 05:44:47;;;;;;;7.10;4.40;;;;;;;23.57;43.78;96758.56;5025272;28;20470;-70
2023/10/14 05:47:17;;;;;;;5.03;4.30;;;;;;;23.57;44.71;96758.56;5031066;28;20468;-70
2023/10/14 05:49:44;;;;;;;8.37;4.90;;;;;;;23.60;45.24;96766.09;5023998;28;20427;-71
2023/10/14 05:52:11;;;;;;;16.17;5.47;;;;;;;23.60;46.18;96774.13;5042531;28;20434;-68
2023/10/14 05:54:37;;;;;;;8.37;4.60;;;;;;;23.62;46.48;96782.72;5032417;28;20483;-71
2023/10/14 05:57:04;;;;;;;8.70;4.93;;;;;;;23.60;46.80;96791.00;5026309;28;20966;-71
2023/10/14 05:59:32;;;;;;;14.03;5.07;;;;;;;23.56;47.29;96795.19;5037884;28;20481;-71
2023/10/14 06:01:58;;;;;;;8.40;5.03;;;;;;;23.57;47.37;96793.31;5032690;28;20465;-71
2023/10/14 06:04:23;;;;;;;16.40;5.50;;;;;;;23.52;47.84;96815.44;5032360;28;21183;-71
2023/10/14 06:06:48;;;;;;;12.67;4.90;;;;;;;23.49;48.09;96821.31;5033593;28;20569;-71
2023/10/14 06:09:16;;;;;;;10.90;4.90;;;;;;;23.46;48.31;96817.25;5030610;28;20192;-69
2023/10/14 06:11:42;;;;;;;7.00;4.50;;;;;;;23.46;48.35;96819.91;5034147;28;20221;-70
2023/10/14 06:14:09;;;;;;;14.30;5.07;;;;;;;23.40;48.51;96818.22;5031714;28;20427;-69
2023/10/14 06:16:35;;;;;;;10.00;5.00;;;;;;;23.40;48.41;96807.53;5043181;28;20234;-71
2023/10/14 06:19:00;;;;;;;9.23;5.17;;;;;;;23.28;48.89;96809.50;5039194;28;21193;-70
2023/10/14 06:21:30;;;;;;;8.37;5.13;;;;;;;23.31;48.76;96819.72;5030189;28;20219;-70
2023/10/14 06:23:55;;;;;;;9.60;4.80;;;;;;;23.35;48.32;96815.47;5033723;28;20226;-70
2023/10/14 06:26:20;;;;;;;7.57;4.93;;;;;;;23.31;48.22;96825.84;5039283;28;20540;-71
2023/10/14 06:28:48;;;;;;;9.37;5.20;;;;;;;23.33;48.02;96828.28;5040475;28;20225;-72
2023/10/14 06:31:13;;;;;;;11.83;5.43;;;;;;;23.33;48.05;96828.28;5036486;28;20706;-70
2023/10/14 06:33:42;;;;;;;9.97;5.00;;;;;;;23.33;47.97;96840.84;5035282;28;20431;-71
2023/10/14 06:36:10;;;;;;;6.73;4.90;;;;;;;23.37;47.94;96840.09;5030759;28;20234;-70
2023/10/14 06:38:37;;;;;;;10.87;5.23;;;;;;;23.38;47.98;96847.06;5035820;28;20488;-70
2023/10/14 06:41:02;;;;;;;10.67;5.10;;;;;;;23.37;47.69;96848.13;5031278;28;20430;-69
2023/10/14 06:43:28;;;;;;;5.50;4.30;;;;;;;23.30;47.94;96844.81;5039081;28;20507;-69
2023/10/14 06:45:54;;;;;;;11.33;4.77;;;;;;;23.30;47.70;96855.50;5031717;28;20218;-69
2023/10/14 06:48:20;;;;;;;9.40;5.57;;;;;;;23.33;47.72;96855.00;5029073;28;20295;-70
2023/10/14 06:50:48;;;;;;;18.80;5.27;;;;;;;23.37;47.61;96860.69;5034542;28;20443;-71
2023/10/14 06:53:15;;;;;;;11.63;5.03;;;;;;;23.41;47.43;96862.63;5029087;28;20707;-70
2023/10/14 06:55:41;;;;;;;11.23;4.93;;;;;;;23.41;47.50;96859.97;5028542;28;20869;-70
2023/10/14 06:58:08;;;;;;;8.80;4.87;;;;;;;23.37;47.57;96864.16;5027743;28;20426;-70
2023/10/14 07:00:37;;;;;;;10.50;5.23;;;;;;;23.39;47.79;96866.59;5027551;28;20274;-71
2023/10/14 07:03:03;;;;;;;7.17;4.93;;;;;;;23.39;48.05;96864.72;5029337;28;20469;-71
2023/10/14 07:05:29;;;;;;;13.83;5.43;;;;;;;23.34;48.84;96861.97;5025556;28;21031;-71
2023/10/14 07:07:57;;;;;;;11.07;5.33;;;;;;;23.33;49.23;96872.91;5037069;28;20438;-69
2023/10/14 07:10:27;;;;;;;7.20;4.83;;;;;;;23.30;49.54;96864.31;5034640;28;20446;-70
2023/10/14 07:13:00;;;;;;;9.60;4.90;;;;;;;23.30;49.77;96863.53;5027692;28;20484;-70
2023/10/14 07:15:27;;;;;;;8.10;5.30;;;;;;;23.35;49.54;96873.50;5034891;28;20450;-70
2023/10/14 07:17:54;;;;;;;8.47;5.63;;;;;;;23.43;49.53;96873.06;5022079;28;20844;-70
2023/10/14 07:20:20;;;;;;;11.80;5.20;;;;;;;23.51;49.24;96871.88;5038221;28;20517;-69
2023/10/14 07:22:45;;;;;;;7.77;4.83;;;;;;;23.58;48.84;96889.38;5032653;28;20589;-70
2023/10/14 07:25:11;;;;;;;13.60;3.90;;;;;;;23.62;48.09;96866.44;5036757;28;20214;-70
2023/10/14 07:27:39;;;;;;;8.13;3.43;;;;;;;23.72;46.26;96873.78;5043588;28;20188;-70
2023/10/14 07:30:15;;;;;;;13.20;3.43;;;;;;;23.83;45.54;96873.94;5032109;28;20458;-71
2023/10/14 07:32:45;;;;;;;8.73;3.57;;;;;;;23.93;44.25;96871.41;5030381;28;22091;-71
2023/10/14 07:35:16;;;;;;;10.60;3.10;;;;;;;24.02;43.54;96872.63;5024750;28;20477;-70
2023/10/14 07:37:44;;;;;;;10.63;2.97;;;;;;;24.11;43.27;96880.22;5027413;28;20905;-70
2023/10/14 07:40:23;;;;;;;5.30;3.20;;;;;;;24.18;42.56;96872.84;5029893;28;20974;-72
2023/10/14 07:42:52;;;;;;;5.80;2.87;;;;;;;24.31;42.39;96867.13;5033989;28;20491;-70
2023/10/14 07:45:21;;;;;;;6.03;3.17;;;;;;;24.39;42.21;96879.25;5027561;28;20592;-71
2023/10/14 07:47:49;;;;;;;11.77;3.80;;;;;;;24.42;42.30;96886.00;5026560;28;20481;-70
2023/10/14 07:50:15;;;;;;;12.70;4.67;;;;;;;24.37;42.29;96884.84;5028198;28;20431;-70
2023/10/14 07:52:41;;;;;;;11.77;3.90;;;;;;;24.25;42.96;96875.34;5024589;28;20434;-71
2023/10/14 07:55:10;;;;;;;8.43;3.80;;;;;;;24.23;43.01;96892.47;5025772;28;20223;-71
2023/10/14 07:57:40;;;;;;;6.60;3.70;;;;;;;24.17;43.09;96884.59;5033388;28;20429;-71
2023/10/14 08:00:12;;;;;;;5.20;3.90;;;;;;;24.14;43.82;96887.78;5020881;28;20441;-70
2023/10/14 08:02:39;;;;;;;6.23;3.97;;;;;;;24.00;45.30;96890.81;5030523;28;20430;-73
2023/10/14 08:05:07;;;;;;;8.53;5.00;;;;;;;24.01;45.62;96902.31;5027992;28;20478;-71
2023/10/14 08:07:40;;;;;;;7.73;4.43;;;;;;;23.92;45.60;96904.59;5036403;28;20435;-71
2023/10/14 08:10:16;;;;;;;8.77;4.10;;;;;;;23.94;45.73;96905.16;5022317;28;20426;-71
2023/10/14 08:12:46;;;;;;;5.23;3.50;;;;;;;23.85;46.33;96930.69;5031670;28;20930;-71
2023/10/14 08:15:13;;;;;;;5.57;3.10;;;;;;;23.72;47.70;96919.25;5023132;28;20493;-71
2023/10/14 08:17:40;;;;;;;6.43;3.17;;;;;;;23.53;48.82;96928.59;5031655;28;20619;-72
2023/10/14 08:20:12;;;;;;;6.03;2.47;;;;;;;23.40;48.26;96919.84;5037018;28;20442;-70
2023/10/14 08:22:40;;;;;;;6.27;2.43;;;;;;;23.41;49.17;96920.63;5030866;28;20489;-72
2023/10/14 08:25:07;;;;;;;8.03;2.50;;;;;;;23.63;49.45;96915.38;5044203;28;21077;-71
2023/10/14 08:27:34;;;;;;;7.20;2.27;;;;;;;23.77;48.41;96930.03;5042365;28;20438;-72
2023/10/14 08:30:00;;;;;;;7.00;2.30;;;;;;;23.79;47.31;96924.44;5031685;28;20885;-71
2023/10/14 08:32:26;;;;;;;2.60;1.80;;;;;;;23.70;47.10;96928.59;5031387;28;20518;-71
2023/10/14 08:34:52;;;;;;;2.03;1.70;;;;;;;23.70;46.93;96928.59;5032959;28;20461;-71
2023/10/14 08:37:17;;;;;;;8.20;2.53;;;;;;;23.88;46.79;96933.66;5031809;28;20513;-71
2023/10/14 08:39:44;;;;;;;4.57;2.00;;;;;;;24.32;46.11;96929.50;5025885;28;20239;-70
2023/10/14 08:42:09;;;;;;;17.13;3.00;;;;;;;24.57;44.95;96922.84;5036660;28;20207;-71
2023/10/14 08:44:39;;;;;;;5.50;2.83;;;;;;;24.88;44.81;96915.19;5038071;28;20568;-71
2023/10/14 08:47:13;;;;;;;1.80;1.60;;;;;;;25.28;43.49;96913.97;5036663;28;20190;-71
2023/10/14 08:49:40;;;;;;;4.67;1.90;;;;;;;25.69;41.81;96924.28;5031444;28;20461;-72
2023/10/14 08:52:09;;;;;;;4.20;1.90;;;;;;;26.11;42.00;96918.13;5038954;28;20458;-71
2023/10/14 08:54:36;;;;;;;4.10;2.13;;;;;;;26.41;40.59;96915.84;5037208;28;20481;-71
2023/10/14 08:57:02;;;;;;;6.10;2.00;;;;;;;26.94;39.92;96915.81;5043549;28;20433;-71
2023/10/14 08:59:27;;;;;;;3.40;2.00;;;;;;;27.34;39.23;96925.03;5033326;28;20426;-72
2023/10/14 09:01:56;;;;;;;11.97;3.20;;;;;;;27.61;39.39;96918.56;5025953;28;20194;-72
2023/10/14 09:04:28;;;;;;;3.90;2.53;;;;;;;27.82;39.02;96935.53;5031019;28;20211;-71
2023/10/14 09:07:00;;;;;;;7.63;2.93;;;;;;;27.87;39.19;96935.53;5023349;28;20460;-70
2023/10/14 09:09:26;;;;;;;8.73;3.50;;;;;;;27.83;38.67;96939.03;5037889;28;20422;-71
2023/10/14 09:11:52;;;;;;;5.80;3.37;;;;;;;27.50;39.56;96933.13;5042094;28;20483;-70
2023/10/14 09:14:17;;;;;;;8.83;3.17;;;;;;;26.74;39.99;96941.50;5036564;28;20198;-72
2023/10/14 09:16:48;;;;;;;5.87;3.33;;;;;;;26.18;41.66;96942.88;5038744;28;20774;-70
2023/10/14 09:19:15;;;;;;;7.60;3.70;;;;;;;26.25;42.29;96974.06;5033219;28;20648;-72
2023/10/14 09:21:49;;;;;;;5.33;2.43;;;;;;;26.13;43.13;97004.59;5029131;28;20427;-72
2023/10/14 09:24:18;;;;;;;6.30;1.30;;;;;;;25.41;43.63;97028.91;5028599;28;20453;-72
2023/10/14 09:26:44;;;;;;;6.00;1.70;;;;;;;24.68;46.28;97024.53;5031551;28;20449;-72
2023/10/14 09:29:10;;;;;;;2.37;1.37;;;;;;;24.19;47.34;97027.03;5038940;28;21006;-71
2023/10/14 09:31:38;;;;;;;1.77;0.90;;;;;;;23.74;48.92;97026.03;5035674;28;20195;-71
2023/10/14 09:34:03;;;;;;;1.40;1.03;;;;;;;23.46;50.21;97023.13;5041479;28;20427;-71
2023/10/14 09:36:33;;;;;;;1.20;0.80;;;;;;;23.21;51.17;97033.34;5046492;28;20515;-71
2023/10/14 09:39:06;;;;;;;1.53;0.80;;;;;;;23.02;51.53;97044.19;5034771;28;20624;-71
2023/10/14 09:41:32;;;;;;;1.67;0.80;;;;;;;22.87;52.33;97044.69;5027079;28;20951;-71
2023/10/14 09:43:58;;;;;;;7.43;0.97;;;;;;;22.73;52.42;97038.78;5033697;28;20422;-69
2023/10/14 09:46:24;;;;;;;1.10;0.70;;;;;;;22.67;52.67;97035.19;5038787;28;20680;-72
2023/10/14 09:48:50;;;;;;;1.30;0.70;;;;;;;22.53;53.75;97034.63;5030090;28;20632;-70
2023/10/14 09:51:16;;;;;;;2.00;0.80;;;;;;;22.44;53.39;97035.22;5029283;28;20250;-72
2023/10/14 09:53:46;;;;;;;2.50;0.80;;;;;;;22.46;53.63;97033.13;5029980;28;21215;-71
2023/10/14 09:56:12;;;;;;;1.40;0.83;;;;;;;22.47;53.10;97027.53;5031889;28;20269;-72
2023/10/14 09:58:42;;;;;;;2.83;0.90;;;;;;;22.42;52.98;97022.09;5029899;28;20441;-72
2023/10/14 10:01:15;;;;;;;1.00;0.80;;;;;;;22.29;52.99;97032.97;5040763;28;20466;-72
2023/10/14 10:03:44;;;;;;;1.00;0.70;;;;;;;22.20;53.50;97038.66;5036595;28;20455;-71
2023/10/14 10:06:15;;;;;;;1.03;0.70;;;;;;;22.20;53.71;97030.66;5032261;28;20485;-71
2023/10/14 10:08:53;;;;;;;2.40;0.70;;;;;;;22.30;52.85;97029.28;5030405;28;20434;-71
2023/10/14 10:11:23;;;;;;;1.43;0.80;;;;;;;22.25;52.25;97028.09;5038482;28;20973;-72
2023/10/14 10:13:52;;;;;;;2.30;0.90;;;;;;;22.36;53.00;97015.81;5030516;28;20423;-71
2023/10/14 10:16:21;;;;;;;1.20;0.60;;;;;;;22.37;52.93;97020.09;5034442;28;20504;-71
2023/10/14 10:18:57;;;;;;;1.10;0.63;;;;;;;22.43;53.66;97029.03;5037596;28;20529;-72
2023/10/14 10:21:34;;;;;;;2.70;0.80;;;;;;;22.50;53.44;97019.06;5038215;28;20444;-72
2023/10/14 10:24:02;;;;;;;1.43;0.80;;;;;;;22.52;52.73;97030.34;5022269;28;20426;-70
2023/10/14 10:26:56;;;;;;;1.33;0.73;;;;;;;22.45;51.79;97029.63;5038799;28;20577;-71
2023/10/14 10:29:22;;;;;;;1.40;0.60;;;;;;;22.43;52.20;97031.72;5030952;28;20475;-72
2023/10/14 10:32:07;;;;;;;1.20;0.60;;;;;;;22.46;52.18;97025.91;5034786;28;20529;-71
2023/10/14 10:34:33;;;;;;;2.47;0.70;;;;;;;22.46;52.92;97025.91;5026983;28;20194;-70
2023/10/14 10:37:00;;;;;;;2.10;0.70;;;;;;;22.51;51.80;97034.06;5029201;28;21178;-71
2023/10/14 10:39:25;;;;;;;2.10;0.70;;;;;;;22.47;51.78;97024.88;5029886;28;20202;-73
2023/10/14 10:41:53;;;;;;;0.90;0.70;;;;;;;22.40;52.22;97030.31;5023176;28;20820;-71
2023/10/14 10:44:19;;;;;;;1.57;0.60;;;;;;;22.39;52.86;97033.22;5029655;28;20459;-70
2023/10/14 10:46:50;;;;;;;0.80;0.60;;;;;;;22.43;53.03;97022.91;5027875;28;21039;-73
2023/10/14 10:49:56;;;;;;;0.80;0.50;;;;;;;22.32;52.11;97028.00;5022215;28;20225;-72
2023/10/14 10:52:24;;;;;;;3.10;0.70;;;;;;;22.24;52.78;97026.47;5018538;28;20886;-72
2023/10/14 10:54:51;;;;;;;1.50;0.77;;;;;;;22.14;52.85;97025.41;5037084;28;20507;-70
2023/10/14 10:57:17;;;;;;;1.40;0.80;;;;;;;22.14;53.20;97015.56;5040131;28;20582;-71
2023/10/14 10:59:43;;;;;;;1.43;0.70;;;;;;;22.12;53.15;97028.31;5028999;28;20927;-71
2023/10/14 11:02:11;;;;;;;1.40;0.70;;;;;;;22.09;52.83;97029.59;5032921;28;20430;-70
2023/10/14 11:04:41;;;;;;;0.90;0.70;;;;;;;22.01;52.88;97027.25;5038483;28;20953;-69
2023/10/14 11:07:09;;;;;;;1.20;0.80;;;;;;;21.90;52.89;97036.88;5027361;28;20433;-70
2023/10/14 11:09:39;;;;;;;1.73;0.60;;;;;;;21.76;52.83;97043.47;5034042;28;20436;-72
2023/10/14 11:12:09;;;;;;;1.20;0.70;;;;;;;21.61;52.78;97042.03;5038150;28;20798;-72
2023/10/14 11:14:34;;;;;;;1.93;0.70;;;;;;;21.48;52.71;97034.19;5030743;28;20869;-70
2023/10/14 11:17:00;;;;;;;4.53;0.70;;;;;;;21.42;53.81;97040.44;5027534;28;20447;-72
2023/10/14 11:19:26;;;;;;;1.30;0.70;;;;;;;21.34;54.08;97036.22;5032797;28;20191;-72
2023/10/14 11:21:52;;;;;;;1.57;0.90;;;;;;;21.26;54.61;97037.34;5026833;28;20274;-73
2023/10/14 11:24:18;;;;;;;1.00;0.67;;;;;;;21.24;54.15;97011.94;5032590;28;20968;-72
2023/10/14 11:26:45;;;;;;;1.10;0.50;;;;;;;21.20;53.72;97016.13;5032121;28;20450;-72
2023/10/14 11:29:11;;;;;;;2.20;0.97;;;;;;;21.07;54.86;97017.09;5036166;28;20440;-72
2023/10/14 11:31:39;;;;;;;1.77;0.70;;;;;;;21.06;54.50;97031.44;5030558;28;20512;-72
2023/10/14 11:34:05;;;;;;;1.13;0.60;;;;;;;21.06;54.86;97032.28;5032307;28;20479;-72
2023/10/14 11:36:30;;;;;;;2.70;0.80;;;;;;;21.07;54.96;97033.06;5030019;28;20520;-72
2023/10/14 11:38:58;;;;;;;1.83;0.80;;;;;;;21.13;55.24;97032.19;5038766;28;20214;-72
2023/10/14 11:41:27;;;;;;;1.00;0.60;;;;;;;21.25;55.20;97038.38;5033184;28;20202;-70
2023/10/14 11:43:53;;;;;;;1.20;0.60;;;;;;;21.37;54.77;97037.63;5030247;28;20433;-71
2023/10/14 11:46:19;;;;;;;1.57;0.60;;;;;;;21.43;54.98;97036.72;5034822;28;20889;-70
2023/10/14 11:48:46;;;;;;;1.43;0.60;;;;;;;21.45;55.05;97042.63;5028144;28;20484;-71
2023/10/14 11:51:16;;;;;;;1.00;0.60;;;;;;;21.37;54.87;97049.09;5037476;28;20198;-71
2023/10/14 11:53:44;;;;;;;1.67;0.60;;;;;;;21.36;55.29;97046.66;5035443;28;20433;-73
2023/10/14 11:56:13;;;;;;;6.83;0.77;;;;;;;21.35;55.28;97034.38;5026238;28;20571;-71
2023/10/14 11:58:42;;;;;;;1.60;0.60;;;;;;;21.23;55.40;97035.13;5028392;28;20600;-72
2023/10/14 12:01:10;;;;;;;0.80;0.50;;;;;;;21.18;55.51;97037.66;5025482;28;20596;-71
2023/10/14 12:03:36;;;;;;;1.37;0.70;;;;;;;21.16;55.35;97037.88;5028133;28;20495;-72
2023/10/14 12:06:03;;;;;;;1.10;0.60;;;;;;;21.04;55.90;97041.53;5026471;28;20470;-72
2023/10/14 12:08:38;;;;;;;1.20;0.50;;;;;;;20.95;55.99;97041.81;5025978;28;20970;-71